Sochi, Russia
Current Conditions -  °F | °C
As of 5:30 PM on Saturday 25 Oct 2014 (Local Time) from URSS Reporting Station
Broken Clouds Broken Clouds  
Wind Chill: 61°   Ceiling: 1400
Heat Index: 61°   Visibility: 6mi
Dew Point: 55°   Wind: 2mph
Humidity: 82%   Direction: 270°W
Pressure: 30"   Gusts: NA
Location:  43.6°N, 39.73°E
Report Text: URSS 251430Z 27001MPS 9999 BKN014 BKN083 16/13 Q1016 NOSIG RMKR06/26001MPS MT OBSC QFE761 02000070 06000070
Loading
Personal Weather Stations






























Interactive Weather Map
Tropical Storm Tracking
New forecast layout! Learn more

10-Day Weather Forecast

Advertisements
Track Severe Weather on mobile